ACA727 CYYJ-CYLW
Flight info
| Callsign | ACA727 |
|---|---|
| Flight time | N/A |
| Altitude | 27000 |
| Route | HUH DCT YDC PIGLU5 |
| Aircraft | A320/M-SDE3FGHIRWY/LB1 |
Departure
| Time | 2026-04-26 04:19 |
|---|---|
| Airport | Victoria International Airport (CYYJ) |
Arrival
| Time | N/A |
|---|---|
| Airport | Kelowna International Airport (CYLW) |
| Time | Latitude | Longitude | Altitude | Speed | Heading |
|---|---|---|---|---|---|
| 2026-04-26 04:05 | 48.64192 | -123.43038 | 56 ft | 0 kts | 345° |
| 2026-04-26 04:14 | 48.64217 | -123.43046 | 54 ft | 13 kts | 347° |
| 2026-04-26 04:14 | 48.64245 | -123.43154 | 54 ft | 12 kts | 253° |
| 2026-04-26 04:15 | 48.64208 | -123.43305 | 55 ft | 15 kts | 290° |
| 2026-04-26 04:15 | 48.64230 | -123.43447 | 51 ft | 13 kts | 301° |
| 2026-04-26 04:15 | 48.64314 | -123.43429 | 53 ft | 22 kts | 43° |
| 2026-04-26 04:15 | 48.64436 | -123.43250 | 53 ft | 25 kts | 43° |
| 2026-04-26 04:16 | 48.64567 | -123.43065 | 54 ft | 25 kts | 43° |
| 2026-04-26 04:16 | 48.64668 | -123.43066 | 51 ft | 9 kts | 329° |
| 2026-04-26 04:16 | 48.64720 | -123.43104 | 54 ft | 8 kts | 332° |
| 2026-04-26 04:16 | 48.64806 | -123.43175 | 52 ft | 17 kts | 332° |
| 2026-04-26 04:17 | 48.64909 | -123.43257 | 53 ft | 16 kts | 327° |
| 2026-04-26 04:17 | 48.64960 | -123.43388 | 50 ft | 14 kts | 289° |
| 2026-04-26 04:17 | 48.64986 | -123.43528 | 55 ft | 14 kts | 287° |
| 2026-04-26 04:17 | 48.65011 | -123.43660 | 53 ft | 12 kts | 285° |
| 2026-04-26 04:18 | 48.65038 | -123.43804 | 55 ft | 15 kts | 290° |
| 2026-04-26 04:18 | 48.65106 | -123.43901 | 54 ft | 13 kts | 335° |
| 2026-04-26 04:18 | 48.65164 | -123.43861 | 53 ft | 11 kts | 90° |
| 2026-04-26 04:18 | 48.65157 | -123.43802 | 50 ft | 0 kts | 107° |
| 2026-04-26 04:19 | 48.65150 | -123.43757 | 53 ft | 27 kts | 104° |
| 2026-04-26 04:19 | 48.65023 | -123.43101 | 55 ft | 98 kts | 106° |
| 2026-04-26 04:19 | 48.64777 | -123.41824 | 72 ft | 150 kts | 106° |
| 2026-04-26 04:19 | 48.64497 | -123.40369 | 759 ft | 138 kts | 107° |
| 2026-04-26 04:20 | 48.64256 | -123.38894 | 1180 ft | 149 kts | 103° |
| 2026-04-26 04:20 | 48.63994 | -123.37349 | 1650 ft | 155 kts | 103° |
| 2026-04-26 04:20 | 48.63720 | -123.35720 | 1930 ft | 173 kts | 103° |
| 2026-04-26 04:20 | 48.63415 | -123.33834 | 2147 ft | 197 kts | 103° |
| 2026-04-26 04:21 | 48.63066 | -123.31693 | 2421 ft | 222 kts | 103° |
| 2026-04-26 04:21 | 48.62670 | -123.29297 | 2835 ft | 246 kts | 103° |
| 2026-04-26 04:21 | 48.62232 | -123.26677 | 3408 ft | 264 kts | 103° |
| 2026-04-26 04:21 | 48.61770 | -123.23962 | 4318 ft | 267 kts | 103° |
| 2026-04-26 04:22 | 48.61302 | -123.21227 | 5284 ft | 269 kts | 103° |
| 2026-04-26 04:22 | 48.60832 | -123.18482 | 6238 ft | 271 kts | 101° |
| 2026-04-26 04:22 | 48.60713 | -123.15678 | 7106 ft | 271 kts | 79° |
| 2026-04-26 04:22 | 48.61349 | -123.13033 | 7999 ft | 269 kts | 55° |
| 2026-04-26 04:23 | 48.62557 | -123.10885 | 8953 ft | 268 kts | 46° |
| 2026-04-26 04:23 | 48.63828 | -123.08824 | 9906 ft | 268 kts | 46° |
| 2026-04-26 04:23 | 48.65122 | -123.06722 | 10463 ft | 282 kts | 46° |
| 2026-04-26 04:23 | 48.66514 | -123.04451 | 10715 ft | 305 kts | 46° |
| 2026-04-26 04:24 | 48.67969 | -123.02066 | 11251 ft | 315 kts | 46° |
| 2026-04-26 04:24 | 48.69465 | -122.99605 | 11995 ft | 320 kts | 46° |
| 2026-04-26 04:24 | 48.70980 | -122.97107 | 12777 ft | 323 kts | 46° |
| 2026-04-26 04:24 | 48.72506 | -122.94581 | 13558 ft | 326 kts | 47° |
| 2026-04-26 04:25 | 48.74045 | -122.92031 | 14243 ft | 329 kts | 46° |
| 2026-04-26 04:25 | 48.75598 | -122.89459 | 14915 ft | 331 kts | 46° |
| 2026-04-26 04:25 | 48.77151 | -122.86888 | 15578 ft | 334 kts | 46° |
| 2026-04-26 04:25 | 48.78733 | -122.84264 | 16244 ft | 337 kts | 46° |
| 2026-04-26 04:26 | 48.80301 | -122.81664 | 16894 ft | 340 kts | 46° |
| 2026-04-26 04:26 | 48.81908 | -122.79002 | 17543 ft | 342 kts | 46° |
| 2026-04-26 04:26 | 48.83528 | -122.76312 | 18208 ft | 345 kts | 45° |
| 2026-04-26 04:26 | 48.85158 | -122.73603 | 18769 ft | 348 kts | 45° |
| 2026-04-26 04:27 | 48.86780 | -122.70901 | 19310 ft | 351 kts | 45° |
| 2026-04-26 04:27 | 48.88428 | -122.68144 | 19860 ft | 355 kts | 45° |